If you wish to contribute or participate in the discussions about articles you are invited to join SKYbrary as a registered user

 Actions

Cheongju International Airport

From SKYbrary Wiki

RKTU /
Revision as of 21:42, 25 June 2020 by Admin (talk | contribs) (Text replacement - "===test===" to "")
(diff) ← Older revision | Latest revision (diff) | Newer revision → (diff)
Airport
ICAO: RKTU – IATA: CJJ
Summary
Name Cheongju International Airport
Region
Territory South Korea KR.gif
Location , Ch'ungch'ong-bukto
Serving Chongju
Elevation 58.217 m
191 ft
191 ft58.217 m
Type large airport
Coordinates 36° 42' 59.76" N, 127° 29' 56.83" E
Runways
Designator Length Width Surface ROPS
06L/24R 2743 m8,999.344 ft
61 m200.131 ft
CON yes/yes
06R/24L 2743 m8,999.344 ft
46 m150.919 ft
CON yes/yes


METAR
Observation RKTU 272200Z 10001KT 2400 BR BKN018 BKN030 BKN180 09/09 Q1023
Station Chongju Ab
Date/Time 27 October 2020 22:00:00
Wind direction 100°
Wind speed 01 kts
Lowest cloud amount broken clouds
Temperature 9°C
Dew point 9°C
Humidity 100%
QNH 1023 hPa
Weather condition n/a